Time;durP1;ratioP1;P1;durP2;ratioP2;P2;SDS_P1;SDS_P2;PMS_P1;PMS_P2;Temp;Humidity;BMP_temperature;BMP_pressure;BME280_temperature;BME280_humidity;BME280_pressure;Samples;Min_cycle;Max_cycle;Signal;HPM_P1;HPM_P2
2023/09/14 00:01:47;;;;;;;11.15;4.38;;;;;;;19.36;93.23;100600.53;5051096;28;20025;-64
2023/09/14 00:04:12;;;;;;;7.70;4.68;;;;;;;19.37;93.07;100601.44;5051880;28;20496;-67
2023/09/14 00:06:37;;;;;;;9.70;5.32;;;;;;;19.33;91.99;100597.94;5052135;28;20686;-63
2023/09/14 00:09:03;;;;;;;6.38;4.72;;;;;;;19.32;91.54;100593.56;5051412;28;20021;-67
2023/09/14 00:11:28;;;;;;;6.95;4.57;;;;;;;19.38;90.83;100598.81;5052526;28;20029;-66
2023/09/14 00:13:54;;;;;;;7.32;4.57;;;;;;;19.33;90.30;100574.38;5051597;28;20031;-66
2023/09/14 00:16:19;;;;;;;6.32;4.38;;;;;;;19.60;89.33;100587.50;5034294;28;20029;-66
2023/09/14 00:18:45;;;;;;;8.13;4.25;;;;;;;19.74;88.04;100598.91;5051642;28;20048;-65
2023/09/14 00:21:10;;;;;;;7.60;4.72;;;;;;;19.87;87.00;100591.94;5051751;28;20029;-64
2023/09/14 00:23:35;;;;;;;9.13;4.40;;;;;;;19.40;85.60;100494.09;5051058;28;20036;-65
2023/09/14 00:26:01;;;;;;;7.93;4.80;;;;;;;19.81;85.84;100566.59;5051788;28;20029;-63
2023/09/14 00:28:26;;;;;;;7.07;4.22;;;;;;;19.96;86.07;100583.22;5051534;28;20028;-64
2023/09/14 00:30:53;;;;;;;7.65;4.30;;;;;;;20.11;85.87;100582.34;5050669;28;20029;-63
2023/09/14 00:33:21;;;;;;;6.25;4.60;;;;;;;19.81;86.03;100527.31;5051833;28;20120;-64
2023/09/14 00:35:47;;;;;;;6.68;4.45;;;;;;;20.16;85.28;100576.22;5051745;28;20025;-64
2023/09/14 00:38:12;;;;;;;10.43;4.60;;;;;;;20.24;84.38;100567.47;5051164;28;20170;-65
2023/09/14 00:40:38;;;;;;;8.00;4.43;;;;;;;20.36;83.62;100562.19;5051766;28;20112;-66
2023/09/14 00:43:04;;;;;;;5.78;4.25;;;;;;;20.20;84.77;100554.38;5051554;28;20074;-63
2023/09/14 00:45:31;;;;;;;7.97;4.65;;;;;;;20.01;83.26;100534.28;5051554;28;20463;-66
2023/09/14 00:47:59;;;;;;;7.43;4.65;;;;;;;20.16;83.90;100573.59;5050834;28;20025;-65
2023/09/14 00:50:26;;;;;;;6.57;4.72;;;;;;;20.10;85.01;100578.84;5051357;28;20081;-65
2023/09/14 00:52:57;;;;;;;12.25;4.55;;;;;;;19.61;85.34;100518.56;5047845;28;20033;-64
2023/09/14 00:55:23;;;;;;;21.48;5.07;;;;;;;19.81;85.78;100550.00;5051347;28;20498;-64
2023/09/14 00:57:50;;;;;;;10.70;4.72;;;;;;;19.85;86.02;100571.00;5033006;28;20080;-64
2023/09/14 01:00:16;;;;;;;7.03;4.90;;;;;;;19.64;86.22;100555.22;5050640;28;20041;-63
2023/09/14 01:02:44;;;;;;;10.00;5.15;;;;;;;19.67;87.07;100571.81;5049772;28;20554;-63
2023/09/14 01:05:12;;;;;;;7.78;4.72;;;;;;;19.48;86.60;100567.44;5033051;28;20029;-66
2023/09/14 01:07:39;;;;;;;6.85;4.28;;;;;;;19.21;88.69;100579.56;5050646;28;20032;-63
2023/09/14 01:10:05;;;;;;;7.53;4.28;;;;;;;18.92;89.11;100547.19;5051081;28;20032;-64
2023/09/14 01:12:32;;;;;;;5.28;3.85;;;;;;;18.58;91.50;100570.53;5050810;28;20416;-65
2023/09/14 01:15:19;;;;;;;7.38;4.30;;;;;;;18.61;91.28;100568.81;5033218;28;20021;-64
2023/09/14 01:18:16;;;;;;;6.60;4.43;;;;;;;18.40;92.15;100567.81;5039569;28;20484;-65
2023/09/14 01:21:02;;;;;;;7.97;4.50;;;;;;;17.85;92.34;100505.59;5050771;28;20032;-65
2023/09/14 01:23:42;;;;;;;8.05;4.75;;;;;;;18.25;92.51;100582.53;5050326;28;20028;-65
2023/09/14 01:26:10;;;;;;;7.45;4.65;;;;;;;18.21;92.84;100574.66;5049049;28;20032;-63
2023/09/14 01:28:36;;;;;;;6.47;4.93;;;;;;;18.20;93.29;100581.63;5050670;28;20029;-66
2023/09/14 01:31:02;;;;;;;7.72;5.03;;;;;;;17.97;94.63;100576.22;5050918;28;20396;-66
2023/09/14 01:33:29;;;;;;;8.68;4.97;;;;;;;17.77;95.69;100576.91;5050454;28;20480;-66
2023/09/14 01:36:31;;;;;;;6.97;4.78;;;;;;;17.87;95.90;100575.25;5050714;28;20025;-65
2023/09/14 01:38:58;;;;;;;6.72;4.80;;;;;;;17.67;95.84;100566.34;5040749;28;20119;-62
2023/09/14 01:41:25;;;;;;;6.65;4.68;;;;;;;17.56;96.86;100576.69;5050230;28;20071;-65
2023/09/14 01:43:54;;;;;;;8.43;4.53;;;;;;;17.58;96.88;100575.84;5050812;28;20109;-64
2023/09/14 01:46:19;;;;;;;7.38;5.00;;;;;;;17.76;95.99;100574.28;5050617;28;20025;-63
2023/09/14 01:48:45;;;;;;;8.23;5.45;;;;;;;17.78;95.42;100559.47;5050462;28;20116;-66
2023/09/14 01:51:11;;;;;;;6.55;4.60;;;;;;;17.91;95.32;100582.22;5049508;28;20060;-64
2023/09/14 01:53:37;;;;;;;7.30;5.47;;;;;;;17.62;94.89;100522.81;5050334;28;20025;-63
2023/09/14 01:56:03;;;;;;;8.90;5.28;;;;;;;18.01;95.20;100575.38;5032297;28;20035;-65
2023/09/14 01:58:29;;;;;;;7.68;5.53;;;;;;;17.91;94.64;100570.94;5050185;28;20135;-64
2023/09/14 02:00:56;;;;;;;7.82;5.47;;;;;;;17.38;96.34;100512.13;5049942;28;20029;-62
2023/09/14 02:03:22;;;;;;;8.05;5.25;;;;;;;17.86;95.80;100585.69;5031444;28;20416;-66
2023/09/14 02:05:57;;;;;;;7.90;5.57;;;;;;;17.95;95.61;100586.66;5049523;28;20033;-65
2023/09/14 02:08:23;;;;;;;10.68;5.28;;;;;;;17.87;96.02;100588.31;5050024;28;20121;-63
2023/09/14 02:10:49;;;;;;;7.97;5.65;;;;;;;17.90;96.40;100579.63;5049632;28;20441;-64
2023/09/14 02:13:14;;;;;;;6.95;5.13;;;;;;;17.61;97.13;100573.25;5049950;28;20044;-68
2023/09/14 02:15:40;;;;;;;7.65;4.68;;;;;;;17.72;97.98;100586.44;5031634;28;20508;-65
2023/09/14 02:18:06;;;;;;;7.70;5.15;;;;;;;17.69;97.76;100581.16;5049345;28;20410;-68
2023/09/14 02:20:31;;;;;;;9.32;5.18;;;;;;;17.76;97.49;100584.72;5031896;28;20034;-69
2023/09/14 02:22:57;;;;;;;7.32;4.97;;;;;;;17.75;97.45;100583.81;5049719;28;20669;-66
2023/09/14 02:25:22;;;;;;;6.60;5.18;;;;;;;17.58;97.83;100573.25;5049367;28;20024;-62
2023/09/14 02:27:49;;;;;;;7.65;5.78;;;;;;;17.70;97.75;100587.28;5050178;28;20175;-65
2023/09/14 02:30:14;;;;;;;7.63;5.03;;;;;;;17.70;97.14;100576.84;5049504;28;20155;-65
2023/09/14 02:32:40;;;;;;;6.97;4.68;;;;;;;17.44;97.83;100580.03;5049491;28;20029;-64
2023/09/14 02:35:06;;;;;;;9.48;5.43;;;;;;;17.50;97.65;100554.00;5049271;28;20466;-67
2023/09/14 02:37:32;;;;;;;7.38;5.20;;;;;;;17.59;96.78;100576.72;5049671;28;20029;-67
2023/09/14 02:39:57;;;;;;;7.05;5.03;;;;;;;17.67;97.31;100577.69;5049785;28;20435;-64
2023/09/14 02:42:22;;;;;;;6.72;5.15;;;;;;;17.74;97.36;100579.47;5049507;28;20044;-64
2023/09/14 02:44:48;;;;;;;6.70;4.88;;;;;;;17.93;97.48;100580.53;5049591;28;20036;-63
2023/09/14 02:47:13;;;;;;;7.88;4.82;;;;;;;18.03;97.39;100567.56;5049194;28;20026;-70
2023/09/14 02:49:38;;;;;;;7.20;5.22;;;;;;;18.10;97.75;100557.16;5049379;28;20029;-63
2023/09/14 02:52:04;;;;;;;8.32;5.10;;;;;;;18.35;96.21;100561.69;5049319;28;20055;-64
2023/09/14 02:54:30;;;;;;;6.55;4.85;;;;;;;18.29;95.09;100569.50;5049328;28;20119;-65
2023/09/14 02:56:55;;;;;;;10.43;5.53;;;;;;;18.15;96.39;100557.19;5014359;28;20573;-66
2023/09/14 02:59:21;;;;;;;6.80;5.15;;;;;;;18.17;96.43;100563.31;5050064;28;20137;-62
2023/09/14 03:01:46;;;;;;;9.43;5.65;;;;;;;18.17;95.78;100568.53;5049792;28;20068;-67
2023/09/14 03:04:14;;;;;;;9.98;5.28;;;;;;;18.08;95.87;100568.47;5049577;28;20025;-66
2023/09/14 03:06:40;;;;;;;8.85;5.20;;;;;;;18.08;95.88;100566.75;5049821;28;20075;-65
2023/09/14 03:09:05;;;;;;;7.72;5.00;;;;;;;17.97;96.23;100565.78;5049555;28;20472;-65
2023/09/14 03:11:31;;;;;;;10.50;5.88;;;;;;;17.79;96.21;100522.06;5049933;28;20052;-65
2023/09/14 03:13:56;;;;;;;8.55;5.03;;;;;;;17.75;95.52;100492.44;5049753;28;20432;-65
2023/09/14 03:16:22;;;;;;;9.07;5.45;;;;;;;18.05;95.06;100548.41;5049382;28;20506;-64
2023/09/14 03:18:47;;;;;;;11.93;5.63;;;;;;;17.43;95.79;100494.78;5032014;28;20570;-64
2023/09/14 03:21:26;;;;;;;12.13;5.18;;;;;;;17.82;96.23;100571.72;5031932;28;20567;-65
2023/09/14 03:23:52;;;;;;;11.90;5.57;;;;;;;17.73;97.04;100567.28;5049456;28;20028;-64
2023/09/14 03:26:18;;;;;;;11.68;5.95;;;;;;;17.70;96.97;100576.84;5050940;28;20037;-65
2023/09/14 03:28:45;;;;;;;14.15;5.55;;;;;;;17.63;97.08;100584.59;5053177;28;20029;-64
2023/09/14 03:31:11;;;;;;;10.52;5.07;;;;;;;17.48;97.51;100588.78;5053492;28;20115;-64
2023/09/14 03:33:37;;;;;;;9.73;5.30;;;;;;;17.31;97.70;100589.50;5035488;28;20104;-64
2023/09/14 03:36:03;;;;;;;11.75;5.63;;;;;;;16.72;98.26;100515.72;5053058;28;20458;-65
2023/09/14 03:38:29;;;;;;;10.45;5.30;;;;;;;16.58;97.89;100504.25;5053051;28;20473;-66
2023/09/14 03:40:56;;;;;;;9.15;6.05;;;;;;;16.97;97.94;100597.78;5017717;28;20047;-65
2023/09/14 03:43:21;;;;;;;11.02;5.68;;;;;;;16.91;97.92;100605.53;5052807;28;20472;-65
2023/09/14 03:45:46;;;;;;;11.15;5.28;;;;;;;16.74;98.46;100604.41;5052907;28;20965;-65
2023/09/14 03:48:12;;;;;;;10.38;5.57;;;;;;;16.88;98.62;100602.84;5049112;28;20021;-64
2023/09/14 03:50:39;;;;;;;11.20;5.88;;;;;;;17.11;97.85;100607.53;5050327;28;20467;-64
2023/09/14 03:53:05;;;;;;;9.52;6.28;;;;;;;17.11;98.43;100600.56;5052777;28;20064;-64
2023/09/14 03:55:31;;;;;;;11.25;7.25;;;;;;;16.83;100.00;100588.88;5053101;28;20043;-65
2023/09/14 03:57:57;;;;;;;12.07;7.28;;;;;;;16.79;100.00;100579.25;5052641;28;20053;-64
2023/09/14 04:00:23;;;;;;;11.48;7.30;;;;;;;16.99;99.60;100597.78;5052390;28;20032;-64
2023/09/14 04:02:49;;;;;;;11.13;6.47;;;;;;;17.14;99.44;100602.31;5052509;28;20056;-64
2023/09/14 04:05:16;;;;;;;10.48;6.80;;;;;;;17.18;99.41;100606.72;5052429;28;20629;-65
2023/09/14 04:07:43;;;;;;;16.15;7.43;;;;;;;17.29;99.07;100607.72;5052454;28;20037;-64
2023/09/14 04:10:12;;;;;;;10.32;6.53;;;;;;;17.19;98.83;100611.09;5052529;28;20032;-64
2023/09/14 04:12:38;;;;;;;10.23;6.20;;;;;;;17.11;98.96;100581.44;5052345;28;20078;-65
2023/09/14 04:15:06;;;;;;;11.48;6.78;;;;;;;16.94;97.30;100526.44;5052559;28;20032;-68
2023/09/14 04:17:32;;;;;;;13.10;6.93;;;;;;;17.35;97.36;100600.84;5052421;28;20025;-66
2023/09/14 04:19:58;;;;;;;13.13;7.15;;;;;;;17.48;95.99;100591.41;5034277;28;20110;-65
2023/09/14 04:22:23;;;;;;;12.13;7.35;;;;;;;17.45;96.34;100603.53;5050176;28;20487;-65
2023/09/14 04:24:49;;;;;;;9.75;7.25;;;;;;;17.37;96.22;100565.19;5051867;28;20040;-71
2023/09/14 04:27:15;;;;;;;17.77;7.90;;;;;;;17.03;95.97;100526.53;5038637;28;20044;-66
2023/09/14 04:29:43;;;;;;;15.00;7.60;;;;;;;17.33;96.67;100613.84;5049348;28;20488;-67
2023/09/14 04:32:10;;;;;;;14.40;7.22;;;;;;;17.23;97.55;100607.63;5043002;28;20065;-67
2023/09/14 04:34:35;;;;;;;16.65;7.18;;;;;;;17.33;98.10;100615.59;5016685;28;20041;-64
2023/09/14 04:37:01;;;;;;;16.40;7.57;;;;;;;17.51;98.14;100618.41;5050560;28;20481;-68
2023/09/14 04:39:28;;;;;;;16.13;7.50;;;;;;;17.45;98.34;100621.81;5048090;28;20040;-66
2023/09/14 04:41:53;;;;;;;13.38;7.63;;;;;;;17.36;99.38;100624.34;5051025;28;20033;-63
2023/09/14 04:44:19;;;;;;;12.77;7.30;;;;;;;17.41;100.00;100621.78;5045353;28;20029;-67
2023/09/14 04:46:44;;;;;;;12.13;7.68;;;;;;;17.35;100.00;100583.44;5045300;28;20025;-65
2023/09/14 04:49:12;;;;;;;13.02;7.72;;;;;;;17.62;100.00;100618.53;5039584;28;20075;-68
2023/09/14 04:51:38;;;;;;;11.32;7.45;;;;;;;17.75;100.00;100614.31;5015441;28;20045;-66
2023/09/14 04:54:03;;;;;;;14.82;7.50;;;;;;;17.89;100.00;100622.25;5051046;28;20081;-65
2023/09/14 04:56:29;;;;;;;9.57;7.13;;;;;;;18.01;100.00;100624.16;5050971;28;20090;-64
2023/09/14 04:58:55;;;;;;;10.25;7.30;;;;;;;17.94;100.00;100604.94;5051190;28;20404;-63
2023/09/14 05:01:21;;;;;;;14.45;7.80;;;;;;;18.17;100.00;100620.81;5051129;28;20501;-65
2023/09/14 05:03:46;;;;;;;14.60;8.30;;;;;;;18.23;99.62;100623.47;5051367;28;20028;-65
2023/09/14 05:06:11;;;;;;;14.98;8.48;;;;;;;18.25;100.00;100613.88;5051484;28;20675;-64
2023/09/14 05:08:37;;;;;;;19.65;8.30;;;;;;;18.33;99.76;100619.19;5051358;28;20065;-65
2023/09/14 05:11:03;;;;;;;14.07;7.68;;;;;;;18.39;99.75;100613.13;5008545;28;20038;-63
2023/09/14 05:13:29;;;;;;;13.80;7.75;;;;;;;18.45;98.56;100614.91;4992572;28;20052;-65
2023/09/14 05:15:54;;;;;;;15.80;8.43;;;;;;;18.46;98.72;100612.31;5008848;28;20125;-64
2023/09/14 05:18:20;;;;;;;14.88;8.38;;;;;;;18.54;97.67;100609.72;5009040;28;20038;-68
2023/09/14 05:20:48;;;;;;;12.85;7.70;;;;;;;18.58;97.59;100604.53;5008879;28;20485;-67
2023/09/14 05:23:13;;;;;;;9.43;7.03;;;;;;;18.57;95.58;100600.16;5008854;28;20026;-63
2023/09/14 05:25:39;;;;;;;11.13;7.25;;;;;;;18.39;94.94;100585.25;5008321;28;20056;-66
2023/09/14 05:28:06;;;;;;;12.25;6.80;;;;;;;18.47;94.92;100598.38;4995606;28;20038;-68
2023/09/14 05:30:32;;;;;;;12.65;6.82;;;;;;;18.47;94.32;100592.25;4989331;28;20096;-65
2023/09/14 05:32:57;;;;;;;11.40;7.20;;;;;;;18.50;94.78;100595.75;5006861;28;20468;-64
2023/09/14 05:35:23;;;;;;;11.23;7.18;;;;;;;18.60;93.88;100594.06;5007392;28;20061;-66
2023/09/14 05:37:48;;;;;;;11.13;6.82;;;;;;;18.56;93.52;100577.50;4958475;28;20033;-62
2023/09/14 05:40:14;;;;;;;10.85;7.03;;;;;;;18.72;93.41;100595.91;5003499;28;20061;-63
2023/09/14 05:42:41;;;;;;;12.02;7.25;;;;;;;18.84;93.37;100595.97;5020353;28;20534;-65
2023/09/14 05:45:08;;;;;;;11.20;6.55;;;;;;;18.96;92.99;100597.78;5049437;28;20112;-65
2023/09/14 05:47:34;;;;;;;9.60;6.78;;;;;;;19.01;93.91;100585.59;5048734;28;20031;-63
2023/09/14 05:49:59;;;;;;;12.32;7.25;;;;;;;19.07;93.75;100584.75;5048630;28;20107;-66
2023/09/14 05:52:25;;;;;;;12.07;7.18;;;;;;;19.14;93.93;100586.53;5029791;28;20132;-68
2023/09/14 05:54:50;;;;;;;10.55;7.57;;;;;;;19.21;94.39;100580.44;4997119;28;20041;-63
2023/09/14 05:57:16;;;;;;;11.98;7.88;;;;;;;19.21;94.13;100590.03;5049843;28;20029;-64
2023/09/14 05:59:42;;;;;;;12.25;7.30;;;;;;;19.27;94.01;100597.06;5048427;28;20037;-65
2023/09/14 06:02:08;;;;;;;14.32;7.07;;;;;;;19.03;94.78;100581.25;5050145;28;20025;-64
2023/09/14 06:04:34;;;;;;;13.95;7.65;;;;;;;19.10;95.46;100584.75;4998454;28;20040;-64
2023/09/14 06:06:59;;;;;;;12.48;7.65;;;;;;;19.07;95.69;100585.63;5042302;28;20021;-63
2023/09/14 06:09:26;;;;;;;11.73;7.43;;;;;;;19.04;95.62;100595.19;5040113;28;20025;-64
2023/09/14 06:11:53;;;;;;;10.20;7.63;;;;;;;19.15;95.59;100597.88;5049162;28;20523;-63
2023/09/14 06:14:18;;;;;;;9.95;7.63;;;;;;;19.33;94.63;100600.53;5050938;28;20765;-64
2023/09/14 06:16:44;;;;;;;10.68;8.07;;;;;;;19.47;93.93;100595.34;5050230;28;20025;-63
2023/09/14 06:19:10;;;;;;;15.30;7.82;;;;;;;19.57;93.98;100601.47;5050251;28;20124;-64
2023/09/14 06:21:36;;;;;;;14.18;7.45;;;;;;;19.56;93.24;100607.56;5050252;28;20106;-65
2023/09/14 06:24:01;;;;;;;12.80;7.15;;;;;;;19.53;93.11;100605.84;5049875;28;20106;-65
2023/09/14 06:26:28;;;;;;;12.05;7.35;;;;;;;19.40;93.28;100580.47;5049125;28;20040;-64
2023/09/14 06:28:55;;;;;;;11.70;6.93;;;;;;;19.36;91.82;100539.47;5050445;28;20068;-65
2023/09/14 06:31:23;;;;;;;9.02;6.45;;;;;;;20.01;90.72;100608.56;5050120;28;20112;-65
2023/09/14 06:33:49;;;;;;;10.82;6.85;;;;;;;19.78;90.92;100613.72;5050425;28;20037;-63
2023/09/14 06:36:18;;;;;;;9.38;6.05;;;;;;;19.56;90.54;100558.72;5050311;28;20036;-64
2023/09/14 06:38:47;;;;;;;7.72;5.90;;;;;;;19.96;90.37;100619.91;5050219;28;20037;-64
2023/09/14 06:41:14;;;;;;;12.00;6.28;;;;;;;19.78;88.81;100544.75;5050198;28;20033;-65
2023/09/14 06:43:42;;;;;;;12.50;6.20;;;;;;;20.34;87.86;100613.78;5050275;28;20033;-68
2023/09/14 06:46:09;;;;;;;16.42;6.35;;;;;;;20.43;88.26;100621.63;5050103;28;20515;-71
2023/09/14 06:48:35;;;;;;;11.80;5.57;;;;;;;20.44;89.22;100622.53;5050203;28;20044;-65
2023/09/14 06:51:00;;;;;;;12.15;6.80;;;;;;;20.46;88.80;100629.50;5049754;28;20025;-65
2023/09/14 06:53:26;;;;;;;12.25;5.82;;;;;;;20.32;88.92;100633.88;5050306;28;20079;-64
2023/09/14 06:55:52;;;;;;;10.32;6.90;;;;;;;20.44;87.76;100627.75;5050109;28;20032;-63
2023/09/14 06:58:17;;;;;;;8.80;5.40;;;;;;;20.07;85.27;100517.69;5050118;28;20480;-64
2023/09/14 07:00:43;;;;;;;11.30;6.78;;;;;;;20.90;85.28;100637.28;5050734;28;20056;-63
2023/09/14 07:03:08;;;;;;;10.50;5.88;;;;;;;20.81;86.49;100611.94;5053907;28;20032;-63
2023/09/14 07:05:35;;;;;;;8.60;5.00;;;;;;;21.08;84.94;100636.38;5053859;28;20131;-69
2023/09/14 07:08:00;;;;;;;9.18;5.13;;;;;;;21.19;83.96;100623.22;5053973;28;20036;-64
2023/09/14 07:10:26;;;;;;;9.13;4.10;;;;;;;20.65;82.96;100521.94;5053942;28;20036;-65
2023/09/14 07:12:52;;;;;;;10.10;4.53;;;;;;;21.55;80.69;100640.53;5053868;28;20029;-65
2023/09/14 07:15:17;;;;;;;6.10;4.03;;;;;;;21.74;79.37;100635.19;5053901;28;20021;-64
2023/09/14 07:17:43;;;;;;;6.22;4.30;;;;;;;21.97;78.32;100645.56;5035981;28;20475;-71
2023/09/14 07:20:09;;;;;;;7.95;4.93;;;;;;;21.97;78.13;100638.53;5053387;28;20074;-63
2023/09/14 07:22:35;;;;;;;8.10;4.45;;;;;;;22.09;77.75;100631.44;5053728;28;20500;-66
2023/09/14 07:25:00;;;;;;;6.35;3.80;;;;;;;22.22;76.96;100629.56;5053450;28;20033;-69
2023/09/14 07:27:25;;;;;;;6.35;4.43;;;;;;;22.37;77.31;100634.72;5053568;28;20036;-68
2023/09/14 07:29:51;;;;;;;7.65;4.10;;;;;;;22.44;77.10;100615.38;5053372;28;20029;-65
2023/09/14 07:32:18;;;;;;;6.97;3.85;;;;;;;22.73;76.66;100619.47;5053568;28;20102;-66
2023/09/14 07:34:44;;;;;;;7.80;4.63;;;;;;;22.88;76.70;100628.06;5053153;28;20036;-66
2023/09/14 07:37:09;;;;;;;6.13;4.32;;;;;;;22.99;75.91;100626.19;5053448;28;20111;-63
2023/09/14 07:39:35;;;;;;;8.05;4.70;;;;;;;23.01;75.81;100608.59;5053526;28;20021;-65
2023/09/14 07:42:00;;;;;;;7.75;4.60;;;;;;;23.36;74.96;100627.50;5053386;28;20044;-65
2023/09/14 07:44:25;;;;;;;6.25;4.38;;;;;;;23.42;74.12;100624.78;5053022;28;20025;-65
2023/09/14 07:46:51;;;;;;;9.57;4.60;;;;;;;23.28;75.22;100619.72;5053074;28;20092;-67
2023/09/14 07:49:16;;;;;;;7.85;4.05;;;;;;;23.35;74.16;100617.84;5053319;28;20469;-65
2023/09/14 07:51:42;;;;;;;5.20;3.58;;;;;;;23.20;74.56;100616.28;5053259;28;20039;-65
2023/09/14 07:54:07;;;;;;;5.78;3.60;;;;;;;23.33;74.77;100612.63;5034050;28;20037;-64
2023/09/14 07:56:33;;;;;;;8.00;3.90;;;;;;;23.48;73.76;100623.81;5035388;28;20045;-65
2023/09/14 07:58:58;;;;;;;4.97;3.47;;;;;;;23.51;70.97;100619.38;5052717;28;20542;-64
2023/09/14 08:01:23;;;;;;;8.93;3.92;;;;;;;23.35;72.19;100557.25;5052815;28;20025;-64
2023/09/14 08:03:49;;;;;;;5.55;4.10;;;;;;;23.78;69.74;100613.75;5052858;28;20037;-64
2023/09/14 08:06:19;;;;;;;5.07;3.70;;;;;;;23.92;68.28;100610.91;5052701;28;20029;-64
2023/09/14 08:08:45;;;;;;;6.63;4.22;;;;;;;23.98;69.13;100606.41;5052985;28;20086;-63
2023/09/14 08:11:11;;;;;;;5.50;3.70;;;;;;;23.69;66.73;100549.72;5052443;28;20064;-63
2023/09/14 08:13:37;;;;;;;8.02;3.80;;;;;;;24.20;65.66;100606.03;5052622;28;20061;-65
2023/09/14 08:16:06;;;;;;;7.57;3.95;;;;;;;24.34;64.05;100608.44;5017461;28;20032;-64
2023/09/14 08:18:32;;;;;;;5.65;3.17;;;;;;;24.18;63.28;100589.38;5052334;28;20025;-64
2023/09/14 08:20:58;;;;;;;6.63;4.03;;;;;;;24.27;63.47;100578.66;5046163;28;20044;-64
2023/09/14 08:23:23;;;;;;;5.60;3.75;;;;;;;24.44;62.79;100578.34;5052599;28;20500;-63
2023/09/14 08:25:49;;;;;;;6.72;3.92;;;;;;;24.59;62.73;100590.38;5052665;28;20113;-72
2023/09/14 08:28:19;;;;;;;7.35;3.78;;;;;;;24.34;62.99;100513.47;5052487;28;20095;-69
2023/09/14 08:30:46;;;;;;;8.13;4.22;;;;;;;24.84;62.64;100561.75;5052442;28;20111;-65
2023/09/14 08:33:11;;;;;;;10.27;4.28;;;;;;;25.00;62.88;100585.19;5051893;28;20057;-65
2023/09/14 08:35:37;;;;;;;5.80;3.80;;;;;;;25.09;61.74;100574.44;5052417;28;20060;-64
2023/09/14 08:38:07;;;;;;;7.85;4.10;;;;;;;25.22;60.73;100569.72;5000477;28;20487;-65
2023/09/14 08:40:34;;;;;;;7.88;4.10;;;;;;;25.27;61.83;100565.25;5052037;28;20021;-65
2023/09/14 08:43:00;;;;;;;6.95;3.78;;;;;;;25.46;61.93;100556.88;5051854;28;20567;-66
2023/09/14 08:45:31;;;;;;;7.68;4.10;;;;;;;25.59;59.53;100549.56;5052178;28;20021;-63
2023/09/14 08:47:59;;;;;;;9.13;4.25;;;;;;;25.46;61.00;100555.13;5052144;28;20033;-65
2023/09/14 08:50:30;;;;;;;4.72;3.58;;;;;;;25.42;58.21;100545.56;5051931;28;20523;-65
2023/09/14 08:52:56;;;;;;;11.15;3.80;;;;;;;25.60;57.35;100541.59;5033087;28;20044;-65
2023/09/14 08:55:24;;;;;;;8.23;3.72;;;;;;;25.77;56.62;100545.56;5052236;28;20390;-65
2023/09/14 08:57:51;;;;;;;7.47;3.83;;;;;;;25.88;56.22;100538.22;5051846;28;20083;-64
2023/09/14 09:00:18;;;;;;;9.82;4.07;;;;;;;26.13;56.39;100527.03;5033577;28;20700;-64
2023/09/14 09:02:54;;;;;;;8.68;4.25;;;;;;;26.28;53.79;100531.94;5048616;28;20389;-63
2023/09/14 09:05:21;;;;;;;8.77;4.15;;;;;;;26.39;53.48;100531.63;5051855;28;20094;-65
2023/09/14 09:07:48;;;;;;;10.32;4.32;;;;;;;26.44;51.30;100505.03;5051484;28;20396;-65
2023/09/14 09:10:24;;;;;;;12.32;4.28;;;;;;;26.57;51.39;100521.44;5050571;28;20033;-65
2023/09/14 09:12:51;;;;;;;11.57;4.50;;;;;;;26.59;51.04;100514.31;5051203;28;20027;-64
2023/09/14 09:15:17;;;;;;;9.52;4.50;;;;;;;26.69;49.88;100515.78;4999737;28;20485;-67
2023/09/14 09:17:44;;;;;;;12.60;4.40;;;;;;;26.77;50.41;100513.81;5051568;28;20071;-63
2023/09/14 09:20:22;;;;;;;10.82;4.07;;;;;;;26.88;48.27;100508.19;5051346;28;20044;-65
2023/09/14 09:22:50;;;;;;;9.82;4.05;;;;;;;26.96;49.10;100507.94;5051427;28;20033;-65
2023/09/14 09:25:17;;;;;;;13.73;4.90;;;;;;;27.10;49.61;100507.53;5033109;28;20095;-66
2023/09/14 09:27:44;;;;;;;9.38;4.57;;;;;;;27.24;50.40;100512.38;5033572;28;20043;-67
2023/09/14 09:30:10;;;;;;;11.25;4.40;;;;;;;27.34;50.33;100495.28;5050171;28;20033;-63
2023/09/14 09:32:41;;;;;;;9.43;4.97;;;;;;;27.31;51.96;100500.66;5051322;28;20033;-65
2023/09/14 09:35:22;;;;;;;10.52;4.57;;;;;;;27.43;50.43;100488.84;5051277;28;20037;-70
2023/09/14 09:37:49;;;;;;;7.90;3.78;;;;;;;27.53;51.47;100478.81;5051015;28;20060;-65
2023/09/14 09:40:18;;;;;;;8.35;4.38;;;;;;;27.44;50.25;100432.22;5032497;28;20118;-65
2023/09/14 09:42:44;;;;;;;11.98;4.90;;;;;;;27.85;50.23;100485.66;5051177;28;20033;-64
2023/09/14 09:45:11;;;;;;;9.90;4.18;;;;;;;27.64;55.49;100422.72;5031970;28;20109;-64
2023/09/14 09:47:37;;;;;;;9.85;4.18;;;;;;;28.13;49.83;100466.13;5050741;28;20099;-65
2023/09/14 09:50:19;;;;;;;11.70;4.55;;;;;;;28.30;48.69;100478.78;5032927;28;20033;-65
2023/09/14 09:52:46;;;;;;;8.32;4.25;;;;;;;28.21;49.88;100473.78;5050844;28;20104;-68
2023/09/14 09:55:25;;;;;;;8.10;3.80;;;;;;;28.24;48.95;100471.06;5051168;28;20041;-65
2023/09/14 09:57:53;;;;;;;10.27;4.18;;;;;;;28.34;48.73;100464.47;5050883;28;20056;-64
2023/09/14 10:00:20;;;;;;;8.05;4.07;;;;;;;28.47;48.38;100469.31;5051154;28;20116;-63
2023/09/14 10:02:53;;;;;;;9.88;4.30;;;;;;;28.51;49.02;100469.16;4998869;28;20416;-64
2023/09/14 10:05:30;;;;;;;9.85;4.20;;;;;;;28.71;46.85;100464.88;5050671;28;20028;-66
2023/09/14 10:07:58;;;;;;;9.60;4.30;;;;;;;28.68;47.23;100465.00;5050758;28;20033;-65
2023/09/14 10:10:25;;;;;;;6.43;4.03;;;;;;;28.79;47.32;100462.78;5050639;28;20706;-64
2023/09/14 10:12:52;;;;;;;8.63;3.72;;;;;;;29.00;47.06;100462.88;5050660;28;20025;-64
2023/09/14 10:15:19;;;;;;;11.57;4.40;;;;;;;29.22;46.97;100452.22;5050373;28;20116;-63
2023/09/14 10:17:48;;;;;;;12.25;4.38;;;;;;;29.20;44.79;100439.00;5050555;28;20510;-63
2023/09/14 10:20:16;;;;;;;10.43;4.25;;;;;;;28.97;45.63;100458.53;5050584;28;20048;-65
2023/09/14 10:22:41;;;;;;;7.95;4.70;;;;;;;29.17;45.52;100436.47;5050167;28;20400;-65
2023/09/14 10:25:08;;;;;;;8.73;3.80;;;;;;;29.18;45.54;100427.56;5050335;28;20041;-65
2023/09/14 10:27:34;;;;;;;8.63;4.57;;;;;;;29.25;44.89;100429.94;5050203;28;20029;-63
2023/09/14 10:30:03;;;;;;;12.93;4.47;;;;;;;29.47;44.46;100429.94;5050357;28;20060;-68
2023/09/14 10:32:29;;;;;;;10.32;4.10;;;;;;;29.45;43.60;100411.41;5050702;28;20085;-65
2023/09/14 10:34:59;;;;;;;11.88;4.20;;;;;;;29.62;44.36;100413.34;5050115;28;20116;-65
2023/09/14 10:37:26;;;;;;;11.38;3.88;;;;;;;29.40;43.18;100362.88;5050272;28;20021;-65
2023/09/14 10:39:53;;;;;;;16.92;4.65;;;;;;;29.22;43.52;100407.03;5049887;28;20025;-65
2023/09/14 10:42:18;;;;;;;8.25;3.75;;;;;;;29.16;44.26;100417.91;5051225;28;20043;-65
2023/09/14 10:44:44;;;;;;;13.38;4.50;;;;;;;29.36;43.17;100414.47;5050235;28;20124;-64
2023/09/14 10:47:10;;;;;;;13.75;4.13;;;;;;;29.30;42.25;100369.53;5031365;28;20053;-71
2023/09/14 10:49:41;;;;;;;13.27;4.15;;;;;;;29.63;41.23;100404.41;5050079;28;20446;-65
2023/09/14 10:52:06;;;;;;;17.65;4.75;;;;;;;29.76;43.17;100395.88;5050114;28;20039;-64
2023/09/14 10:54:32;;;;;;;11.85;3.65;;;;;;;29.95;41.05;100399.50;5050105;28;20107;-63
2023/09/14 10:57:00;;;;;;;12.75;4.20;;;;;;;30.23;39.30;100406.22;5049979;28;20480;-64
2023/09/14 10:59:51;;;;;;;19.88;4.55;;;;;;;30.34;38.54;100395.06;5050161;28;20053;-64
2023/09/14 11:02:39;;;;;;;16.33;4.70;;;;;;;30.32;38.61;100410.28;5049975;28;20386;-65
2023/09/14 11:05:14;;;;;;;18.67;5.07;;;;;;;29.89;38.41;100406.88;5049992;28;20033;-68
2023/09/14 11:07:44;;;;;;;15.13;4.72;;;;;;;30.09;42.89;100404.19;5050111;28;20029;-65
2023/09/14 11:10:15;;;;;;;11.60;4.32;;;;;;;30.24;39.27;100383.13;5050103;28;20059;-63
2023/09/14 11:12:40;;;;;;;12.60;4.43;;;;;;;30.39;38.51;100384.19;5049673;28;20116;-65
2023/09/14 11:15:16;;;;;;;12.32;4.40;;;;;;;30.53;38.34;100396.88;5050011;28;20116;-64
2023/09/14 11:17:42;;;;;;;11.32;4.32;;;;;;;30.18;38.93;100390.47;5049512;28;20025;-65
2023/09/14 11:20:22;;;;;;;14.23;4.55;;;;;;;30.33;39.18;100390.66;5049750;28;20074;-67
2023/09/14 11:22:51;;;;;;;14.80;5.05;;;;;;;30.32;39.25;100386.31;5049659;28;20473;-65